createdAt,value
2017-04-04T00:00:35.140Z,1000.54
2017-04-04T00:01:35.168Z,1000.49
2017-04-04T00:02:35.197Z,1000.5
2017-04-04T00:03:35.220Z,1000.49
2017-04-04T00:04:35.245Z,1000.51
2017-04-04T00:05:35.320Z,1000.51
2017-04-04T00:06:35.299Z,1000.46
2017-04-04T00:07:35.331Z,1000.49
2017-04-04T00:08:35.361Z,1000.51
2017-04-04T00:09:35.384Z,1000.48
2017-04-04T00:10:35.415Z,1000.46
2017-04-04T00:11:35.444Z,1000.45
2017-04-04T00:12:35.467Z,1000.46
2017-04-04T00:13:35.496Z,1000.47
2017-04-04T00:14:35.524Z,1000.45
2017-04-04T00:15:35.549Z,1000.44
2017-04-04T00:16:35.574Z,1000.47
2017-04-04T00:17:35.607Z,1000.43
2017-04-04T00:18:35.629Z,1000.43
2017-04-04T00:19:35.660Z,1000.41
2017-04-04T00:20:35.688Z,1000.39
2017-04-04T00:21:35.718Z,1000.39
2017-04-04T00:22:35.743Z,1000.36
2017-04-04T00:23:35.772Z,1000.33
2017-04-04T00:24:35.802Z,1000.33
2017-04-04T00:25:35.825Z,1000.32
2017-04-04T00:26:35.849Z,1000.33
2017-04-04T00:27:35.883Z,1000.33
2017-04-04T00:28:35.911Z,1000.36
2017-04-04T00:29:35.937Z,1000.34
2017-04-04T00:30:35.960Z,1000.37
2017-04-04T00:31:35.989Z,1000.34
2017-04-04T00:32:36.018Z,1000.32
2017-04-04T00:33:36.046Z,1000.33
2017-04-04T00:34:36.072Z,1000.27
2017-04-04T00:35:36.100Z,1000.25
2017-04-04T00:36:36.125Z,1000.28
2017-04-04T00:37:36.155Z,1000.22
2017-04-04T00:38:36.183Z,1000.26
2017-04-04T00:39:36.212Z,1000.29
2017-04-04T00:40:36.236Z,1000.24
2017-04-04T00:41:36.265Z,1000.24
2017-04-04T00:42:36.294Z,1000.27
2017-04-04T00:43:36.318Z,1000.26
2017-04-04T00:44:36.348Z,1000.27
2017-04-04T00:45:36.377Z,1000.27
2017-04-04T00:46:36.397Z,1000.28
2017-04-04T00:47:36.430Z,1000.22
2017-04-04T00:48:36.458Z,1000.26
2017-04-04T00:49:36.486Z,1000.22
2017-04-04T00:50:36.513Z,1000.19
2017-04-04T00:51:36.537Z,1000.21
2017-04-04T00:52:36.566Z,1000.17
2017-04-04T00:53:36.599Z,1000.18
2017-04-04T00:54:36.621Z,1000.19
2017-04-04T00:55:36.647Z,1000.22
2017-04-04T00:56:36.676Z,1000.23
2017-04-04T00:57:36.705Z,1000.19
2017-04-04T00:58:36.730Z,1000.18
2017-04-04T00:59:36.759Z,1000.19
2017-04-04T01:00:36.786Z,1000.21
2017-04-04T01:01:36.811Z,1000.17
2017-04-04T01:02:36.840Z,1000.19
2017-04-04T01:03:36.869Z,1000.16
2017-04-04T01:04:36.894Z,1000.13
2017-04-04T01:05:36.923Z,1000.15
2017-04-04T01:06:36.949Z,1000.13
2017-04-04T01:07:36.980Z,1000.09
2017-04-04T01:08:37.004Z,1000.14
2017-04-04T01:09:37.033Z,1000.11
2017-04-04T01:10:37.056Z,1000.1
2017-04-04T01:11:37.086Z,1000.08
2017-04-04T01:12:37.112Z,1000.12
2017-04-04T01:13:37.141Z,1000.09
2017-04-04T01:14:37.169Z,1000.09
2017-04-04T01:15:37.194Z,1000.06
2017-04-04T01:16:37.222Z,1000.06
2017-04-04T01:17:37.251Z,1000.1
2017-04-04T01:18:37.277Z,1000.09
2017-04-04T01:19:37.300Z,1000.15
2017-04-04T01:20:37.333Z,1000.1
2017-04-04T01:21:37.359Z,1000.1
2017-04-04T01:22:37.639Z,1000.09
2017-04-04T01:23:37.416Z,1000.06
2017-04-04T01:24:37.441Z,1000.11
2017-04-04T01:25:37.469Z,1000.16
2017-04-04T01:26:37.498Z,1000.13
2017-04-04T01:27:37.775Z,1000.12
2017-04-04T01:28:37.548Z,1000.13
2017-04-04T01:29:37.581Z,1000.12
2017-04-04T01:30:37.608Z,1000.15
2017-04-04T01:31:37.634Z,1000.11
2017-04-04T01:32:37.914Z,1000.15
2017-04-04T01:33:37.688Z,1000.14
2017-04-04T01:34:37.717Z,1000.12
2017-04-04T01:35:37.741Z,1000.1
2017-04-04T01:36:37.770Z,1000.12
2017-04-04T01:37:37.798Z,1000.12
2017-04-04T01:38:37.823Z,1000.12
2017-04-04T01:39:37.852Z,1000.14
2017-04-04T01:40:37.879Z,1000.15
2017-04-04T01:41:37.907Z,1000.12
2017-04-04T01:42:37.931Z,1000.11
2017-04-04T01:43:37.959Z,1000.07
2017-04-04T01:44:37.989Z,1000.09
2017-04-04T01:45:38.017Z,1000.12
2017-04-04T01:46:38.041Z,1000.09
2017-04-04T01:47:38.066Z,1000.12
2017-04-04T01:48:38.098Z,1000.12
2017-04-04T01:49:38.124Z,1000.06
2017-04-04T01:50:38.154Z,1000.09
2017-04-04T01:51:38.175Z,1000.09
2017-04-04T01:52:38.205Z,1000.04
2017-04-04T01:53:38.231Z,1000.06
2017-04-04T01:54:38.261Z,1000.08
2017-04-04T01:55:38.289Z,1000.03
2017-04-04T01:56:38.318Z,1000.04
2017-04-04T01:57:38.337Z,1000.02
2017-04-04T01:58:38.370Z,1000.02
2017-04-04T01:59:38.393Z,1000.04
2017-04-04T02:00:38.424Z,1000.03
2017-04-04T02:01:38.450Z,1000.05
2017-04-04T02:02:38.477Z,1000.03
2017-04-04T02:03:38.505Z,1000.04
2017-04-04T02:04:38.531Z,1000.05
2017-04-04T02:05:38.559Z,1000.05
2017-04-04T02:06:38.593Z,1000.06
2017-04-04T02:07:38.614Z,1000.03
2017-04-04T02:08:38.642Z,1000.01
2017-04-04T02:09:38.669Z,1000.02
2017-04-04T02:10:38.696Z,1000.03
2017-04-04T02:11:38.724Z,1000
2017-04-04T02:12:38.749Z,1000.01
2017-04-04T02:13:38.779Z,1000.02
2017-04-04T02:14:38.810Z,1000
2017-04-04T02:15:38.831Z,999.94
2017-04-04T02:16:38.860Z,999.99
2017-04-04T02:17:38.888Z,999.96
2017-04-04T02:18:38.914Z,999.96
2017-04-04T02:19:38.939Z,999.95
2017-04-04T02:20:38.967Z,999.91
2017-04-04T02:21:38.996Z,999.93
2017-04-04T02:22:39.025Z,999.9
2017-04-04T02:23:39.050Z,999.91
2017-04-04T02:24:39.096Z,999.91
2017-04-04T02:25:39.103Z,999.93
2017-04-04T02:26:39.131Z,999.91
2017-04-04T02:27:39.159Z,999.97
2017-04-04T02:28:39.180Z,999.96
2017-04-04T02:29:39.214Z,999.95
2017-04-04T02:30:39.239Z,999.92
2017-04-04T02:31:39.267Z,999.96
2017-04-04T02:32:39.299Z,999.92
2017-04-04T02:33:39.317Z,999.91
2017-04-04T02:34:39.351Z,999.87
2017-04-04T02:35:39.374Z,999.88
2017-04-04T02:36:39.403Z,999.84
2017-04-04T02:37:39.431Z,999.93
2017-04-04T02:38:39.456Z,999.93
2017-04-04T02:39:39.485Z,999.93
2017-04-04T02:40:39.516Z,999.96
2017-04-04T02:41:39.542Z,999.98
2017-04-04T02:42:39.567Z,999.93
2017-04-04T02:43:39.588Z,999.95
2017-04-04T02:44:39.621Z,999.95
2017-04-04T02:45:39.646Z,999.92
2017-04-04T02:46:39.675Z,999.9
2017-04-04T02:47:39.702Z,999.92
2017-04-04T02:48:39.728Z,999.92
2017-04-04T02:49:39.757Z,999.91
2017-04-04T02:50:39.787Z,999.93
2017-04-04T02:51:39.810Z,999.95
2017-04-04T02:52:39.839Z,999.91
2017-04-04T02:53:39.864Z,999.92
2017-04-04T02:54:39.893Z,999.92
2017-04-04T02:55:39.922Z,999.93
2017-04-04T02:56:39.946Z,999.92
2017-04-04T02:57:39.975Z,999.91
2017-04-04T03:00:40.056Z,999.89
2017-04-04T03:01:40.081Z,999.9
2017-04-04T03:02:40.106Z,999.88
2017-04-04T03:03:40.135Z,999.89
2017-04-04T03:04:40.163Z,999.9
2017-04-04T03:05:40.186Z,999.9
2017-04-04T03:06:40.218Z,999.86
2017-04-04T03:07:40.247Z,999.88
2017-04-04T03:08:40.269Z,999.85
2017-04-04T03:09:40.300Z,999.86
2017-04-04T03:10:40.324Z,999.88
2017-04-04T03:11:40.363Z,999.87
2017-04-04T03:12:40.381Z,999.88
2017-04-04T03:13:40.406Z,999.87
2017-04-04T03:14:40.432Z,999.86
2017-04-04T03:15:40.464Z,999.86
2017-04-04T03:16:40.490Z,999.84
2017-04-04T03:17:40.516Z,999.85
2017-04-04T03:18:40.543Z,999.82
2017-04-04T03:19:40.570Z,999.76
2017-04-04T03:20:40.601Z,999.79
2017-04-04T03:21:40.625Z,999.78
2017-04-04T03:22:40.653Z,999.76
2017-04-04T03:23:40.679Z,999.75
2017-04-04T03:24:40.707Z,999.76
2017-04-04T03:25:40.732Z,999.79
2017-04-04T03:26:40.756Z,999.76
2017-04-04T03:27:40.788Z,999.76
2017-04-04T03:28:40.814Z,999.78
2017-04-04T03:29:40.838Z,999.77
2017-04-04T03:30:40.867Z,999.78
2017-04-04T03:31:40.896Z,999.78
2017-04-04T03:32:40.920Z,999.78
2017-04-04T03:33:40.986Z,999.75
2017-04-04T03:34:40.978Z,999.74
2017-04-04T03:35:41.003Z,999.73
2017-04-04T03:36:41.031Z,999.76
2017-04-04T03:37:41.057Z,999.79
2017-04-04T03:38:41.084Z,999.73
2017-04-04T03:39:41.109Z,999.7
2017-04-04T03:40:41.139Z,999.72
2017-04-04T03:41:41.171Z,999.7
2017-04-04T03:42:41.195Z,999.72
2017-04-04T03:43:41.216Z,999.71
2017-04-04T03:44:41.242Z,999.71
2017-04-04T03:45:41.274Z,999.72
2017-04-04T03:46:41.302Z,999.75
2017-04-04T03:47:41.328Z,999.72
2017-04-04T03:48:41.357Z,999.72
2017-04-04T03:49:41.384Z,999.77
2017-04-04T03:50:41.657Z,999.8
2017-04-04T03:51:41.434Z,999.82
2017-04-04T03:52:41.464Z,999.77
2017-04-04T03:53:41.491Z,999.81
2017-04-04T03:54:41.517Z,999.83
2017-04-04T03:55:41.796Z,999.83
2017-04-04T03:56:41.571Z,999.81
2017-04-04T03:57:41.599Z,999.83
2017-04-04T03:58:41.624Z,999.86
2017-04-04T03:59:41.653Z,999.86
2017-04-04T04:00:41.933Z,999.87
2017-04-04T04:01:41.702Z,999.84
2017-04-04T04:02:41.735Z,999.83
2017-04-04T04:03:41.760Z,999.84
2017-04-04T04:04:41.787Z,999.83
2017-04-04T04:05:41.813Z,999.85
2017-04-04T04:06:41.844Z,999.83
2017-04-04T04:07:41.873Z,999.83
2017-04-04T04:08:41.897Z,999.83
2017-04-04T04:09:41.923Z,999.82
2017-04-04T04:10:41.947Z,999.82
2017-04-04T04:11:41.979Z,999.84
2017-04-04T04:12:42.003Z,999.83
2017-04-04T04:13:42.031Z,999.81
2017-04-04T04:14:42.058Z,999.78
2017-04-04T04:15:42.084Z,999.83
2017-04-04T04:16:42.114Z,999.84
2017-04-04T04:17:42.138Z,999.82
2017-04-04T04:18:42.166Z,999.81
2017-04-04T04:19:42.191Z,999.83
2017-04-04T04:20:42.221Z,999.79
2017-04-04T04:21:42.241Z,999.84
2017-04-04T04:22:42.274Z,999.8
2017-04-04T04:23:42.297Z,999.78
2017-04-04T04:24:42.329Z,999.77
2017-04-04T04:25:42.356Z,999.8
2017-04-04T04:26:42.381Z,999.78
2017-04-04T04:27:42.409Z,999.79
2017-04-04T04:28:42.434Z,999.81
2017-04-04T04:29:42.463Z,999.78
2017-04-04T04:30:42.493Z,999.79
2017-04-04T04:31:42.517Z,999.8
2017-04-04T04:32:42.546Z,999.8
2017-04-04T04:33:42.570Z,999.71
2017-04-04T04:34:42.603Z,999.74
2017-04-04T04:35:42.624Z,999.76
2017-04-04T04:36:42.648Z,999.74
2017-04-04T04:37:42.683Z,999.76
2017-04-04T04:38:42.704Z,999.72
2017-04-04T04:39:42.736Z,999.7
2017-04-04T04:40:42.764Z,999.77
2017-04-04T04:41:42.789Z,999.73
2017-04-04T04:42:42.812Z,999.71
2017-04-04T04:43:42.842Z,999.77
2017-04-04T04:44:42.869Z,999.73
2017-04-04T04:45:42.894Z,999.76
2017-04-04T04:46:42.920Z,999.74
2017-04-04T04:47:42.949Z,999.75
2017-04-04T04:48:42.978Z,999.77
2017-04-04T04:49:42.999Z,999.74
2017-04-04T04:50:43.027Z,999.73
2017-04-04T04:51:43.052Z,999.74
2017-04-04T04:52:43.084Z,999.73
2017-04-04T04:53:43.109Z,999.74
2017-04-04T04:54:43.138Z,999.72
2017-04-04T04:55:43.163Z,999.73
2017-04-04T04:56:43.192Z,999.72
2017-04-04T04:57:43.216Z,999.72
2017-04-04T04:58:43.245Z,999.72
2017-04-04T04:59:43.273Z,999.76
2017-04-04T05:00:43.299Z,999.77
2017-04-04T05:01:43.330Z,999.72
2017-04-04T05:02:43.348Z,999.71
2017-04-04T05:03:43.385Z,999.71
2017-04-04T05:04:43.406Z,999.73
2017-04-04T05:05:43.435Z,999.73
2017-04-04T05:06:43.458Z,999.71
2017-04-04T05:07:43.483Z,999.71
2017-04-04T05:08:43.512Z,999.73
2017-04-04T05:09:43.541Z,999.71
2017-04-04T05:10:43.570Z,999.76
2017-04-04T05:11:43.595Z,999.75
2017-04-04T05:12:43.624Z,999.76
2017-04-04T05:13:43.650Z,999.78
2017-04-04T05:14:43.677Z,999.81
2017-04-04T05:15:43.701Z,999.78
2017-04-04T05:16:43.729Z,999.82
2017-04-04T05:17:43.758Z,999.85
2017-04-04T05:18:43.784Z,999.87
2017-04-04T05:19:43.810Z,999.88
2017-04-04T05:20:43.837Z,999.87
2017-04-04T05:21:43.865Z,999.87
2017-04-04T05:22:43.887Z,999.88
2017-04-04T05:23:43.912Z,999.95
2017-04-04T05:24:43.944Z,999.95
2017-04-04T05:25:43.966Z,999.9
2017-04-04T05:26:43.997Z,999.92
2017-04-04T05:27:44.027Z,999.96
2017-04-04T05:28:44.051Z,999.95
2017-04-04T05:29:44.076Z,999.94
2017-04-04T05:30:44.105Z,999.95
2017-04-04T05:31:44.135Z,999.92
2017-04-04T05:32:44.157Z,999.93
2017-04-04T05:33:44.183Z,999.94
2017-04-04T05:34:44.212Z,999.98
2017-04-04T05:35:44.241Z,999.94
2017-04-04T05:36:44.266Z,999.96
2017-04-04T05:37:44.294Z,999.93
2017-04-04T05:38:44.320Z,999.97
2017-04-04T05:39:44.349Z,999.98
2017-04-04T05:40:44.373Z,999.99
2017-04-04T05:41:44.401Z,1000.01
2017-04-04T05:42:44.426Z,999.98
2017-04-04T05:43:44.454Z,1000
2017-04-04T05:44:44.480Z,1000.03
2017-04-04T05:45:44.509Z,1000.04
2017-04-04T05:46:44.537Z,1000.02
2017-04-04T05:47:44.560Z,1000.04
2017-04-04T05:48:44.593Z,1000.08
2017-04-04T05:49:44.611Z,1000.03
2017-04-04T05:50:44.644Z,1000.04
2017-04-04T05:51:44.667Z,1000.05
2017-04-04T05:52:44.698Z,1000.06
2017-04-04T05:53:44.723Z,1000.04
2017-04-04T05:54:44.748Z,1000.09
2017-04-04T05:55:44.778Z,1000.09
2017-04-04T05:56:44.805Z,1000.1
2017-04-04T05:57:44.829Z,1000.09
2017-04-04T05:58:44.857Z,1000.11
2017-04-04T05:59:44.883Z,1000.11
2017-04-04T06:00:44.913Z,1000.16
2017-04-04T06:01:44.937Z,1000.14
2017-04-04T06:02:44.965Z,1000.17
2017-04-04T06:03:44.990Z,1000.19
2017-04-04T06:04:45.019Z,1000.22
2017-04-04T06:05:45.048Z,1000.27
2017-04-04T06:06:45.074Z,1000.25
2017-04-04T06:07:45.103Z,1000.27
2017-04-04T06:08:45.126Z,1000.26
2017-04-04T06:09:45.155Z,1000.22
2017-04-04T06:10:45.181Z,1000.29
2017-04-04T06:11:45.207Z,1000.28
2017-04-04T06:12:45.233Z,1000.27
2017-04-04T06:13:45.262Z,1000.27
2017-04-04T06:14:45.287Z,1000.33
2017-04-04T06:15:45.315Z,1000.29
2017-04-04T06:16:45.341Z,1000.35
2017-04-04T06:17:45.369Z,1000.35
2017-04-04T06:18:45.394Z,1000.37
2017-04-04T06:19:45.424Z,1000.36
2017-04-04T06:20:45.447Z,1000.35
2017-04-04T06:21:45.476Z,1000.36
2017-04-04T06:22:45.505Z,1000.38
2017-04-04T06:23:45.529Z,1000.41
2017-04-04T06:24:45.557Z,1000.42
2017-04-04T06:25:45.580Z,1000.4
2017-04-04T06:26:45.612Z,1000.43
2017-04-04T06:27:45.636Z,1000.41
2017-04-04T06:28:45.664Z,1000.43
2017-04-04T06:29:45.690Z,1000.43
2017-04-04T06:30:45.719Z,1000.46
2017-04-04T06:31:45.744Z,1000.48
2017-04-04T06:32:45.771Z,1000.48
2017-04-04T06:33:45.794Z,1000.47
2017-04-04T06:34:45.825Z,1000.49
2017-04-04T06:35:45.851Z,1000.5
2017-04-04T06:36:45.880Z,1000.48
2017-04-04T06:37:45.904Z,1000.49
2017-04-04T06:38:45.933Z,1000.49
2017-04-04T06:39:45.958Z,1000.51
2017-04-04T06:40:45.987Z,1000.49
2017-04-04T06:41:46.014Z,1000.49
2017-04-04T06:42:46.038Z,1000.53
2017-04-04T06:43:46.068Z,1000.51
2017-04-04T06:44:46.093Z,1000.5
2017-04-04T06:45:46.122Z,1000.53
2017-04-04T06:46:46.147Z,1000.51
2017-04-04T06:47:46.176Z,1000.51
2017-04-04T06:48:46.200Z,1000.5
2017-04-04T06:49:46.228Z,1000.5
2017-04-04T06:50:46.290Z,1000.52
2017-04-04T06:51:46.279Z,1000.52
2017-04-04T06:52:46.301Z,1000.53
2017-04-04T06:53:46.337Z,1000.51
2017-04-04T06:54:46.360Z,1000.51
2017-04-04T06:55:46.388Z,1000.54
2017-04-04T06:56:46.669Z,1000.49
2017-04-04T06:57:46.443Z,1000.56
2017-04-04T06:58:46.471Z,1000.57
2017-04-04T06:59:46.496Z,1000.57
2017-04-04T07:00:46.520Z,1000.56
2017-04-04T07:01:46.802Z,1000.53
2017-04-04T07:02:46.579Z,1000.57
2017-04-04T07:03:46.603Z,1000.59
2017-04-04T07:04:46.632Z,1000.58
2017-04-04T07:05:46.657Z,1000.57
2017-04-04T07:06:46.934Z,1000.56
2017-04-04T07:07:46.710Z,1000.54
2017-04-04T07:08:46.739Z,1000.54
2017-04-04T07:09:46.764Z,1000.55
2017-04-04T07:10:46.792Z,1000.54
2017-04-04T07:11:47.069Z,1000.53
2017-04-04T07:12:46.842Z,1000.54
2017-04-04T07:13:46.875Z,1000.55
2017-04-04T07:14:46.900Z,1000.46
2017-04-04T07:15:46.929Z,1000.51
2017-04-04T07:16:46.949Z,1000.45
2017-04-04T07:17:46.982Z,1000.49
2017-04-04T07:18:47.006Z,1000.46
2017-04-04T07:19:47.035Z,1000.5
2017-04-04T07:20:47.061Z,1000.48
2017-04-04T07:21:47.087Z,1000.49
2017-04-04T07:22:47.113Z,1000.49
2017-04-04T07:23:47.188Z,1000.48
2017-04-04T07:24:47.167Z,1000.49
2017-04-04T07:25:47.196Z,1000.48
2017-04-04T07:26:47.220Z,1000.47
2017-04-04T07:27:47.249Z,1000.5
2017-04-04T07:28:47.277Z,1000.5
2017-04-04T07:29:47.303Z,1000.48
2017-04-04T07:30:47.332Z,1000.52
2017-04-04T07:31:47.356Z,1000.52
2017-04-04T07:32:47.385Z,1000.52
2017-04-04T07:33:47.410Z,1000.53
2017-04-04T07:34:47.438Z,1000.49
2017-04-04T07:35:47.467Z,1000.51
2017-04-04T07:36:47.492Z,1000.49
2017-04-04T07:37:47.521Z,1000.53
2017-04-04T07:38:47.540Z,1000.49
2017-04-04T07:39:47.569Z,1000.48
2017-04-04T07:40:47.600Z,1000.53
2017-04-04T07:41:47.627Z,1000.48
2017-04-04T07:42:47.656Z,1000.54
2017-04-04T07:43:47.683Z,1000.55
2017-04-04T07:44:47.712Z,1000.55
2017-04-04T07:45:47.734Z,1000.57
2017-04-04T07:46:47.763Z,1000.62
2017-04-04T07:47:47.792Z,1000.62
2017-04-04T07:48:47.816Z,1000.66
2017-04-04T07:49:47.845Z,1000.66
2017-04-04T07:50:47.876Z,1000.67
2017-04-04T07:51:47.898Z,1000.63
2017-04-04T07:52:47.927Z,1000.65
2017-04-04T07:53:47.947Z,1000.59
2017-04-04T07:54:47.980Z,1000.6
2017-04-04T07:55:48.010Z,1000.55
2017-04-04T07:56:48.035Z,1000.55
2017-04-04T07:57:48.061Z,1000.57
2017-04-04T07:58:48.087Z,1000.56
2017-04-04T07:59:48.117Z,1000.53
2017-04-04T08:00:48.147Z,1000.48
2017-04-04T08:01:48.174Z,1000.5
2017-04-04T08:02:48.200Z,1000.46
2017-04-04T08:03:48.223Z,1000.4
2017-04-04T08:04:48.256Z,1000.38
2017-04-04T08:05:48.286Z,1000.42
2017-04-04T08:06:48.308Z,1000.43
2017-04-04T08:07:48.339Z,1000.38
2017-04-04T08:08:48.369Z,1000.38
2017-04-04T08:09:48.396Z,1000.36
2017-04-04T08:10:48.423Z,1000.35
2017-04-04T08:11:48.450Z,1000.34
2017-04-04T08:12:48.479Z,1000.37
2017-04-04T08:13:48.504Z,1000.34
2017-04-04T08:14:48.533Z,1000.36
2017-04-04T08:15:48.561Z,1000.38
2017-04-04T08:16:48.587Z,1000.37
2017-04-04T08:17:48.614Z,1000.41
2017-04-04T08:18:48.639Z,1000.42
2017-04-04T08:19:48.667Z,1000.46
2017-04-04T08:20:48.696Z,1000.42
2017-04-04T08:21:48.725Z,1000.46
2017-04-04T08:22:48.752Z,1000.45
2017-04-04T08:23:48.778Z,1000.45
2017-04-04T08:24:48.807Z,1000.47
2017-04-04T08:25:48.835Z,1000.45
2017-04-04T08:26:48.860Z,1000.45
2017-04-04T08:27:48.892Z,1000.44
2017-04-04T08:28:48.914Z,1000.44
2017-04-04T08:29:48.946Z,1000.4
2017-04-04T08:30:48.972Z,1000.45
2017-04-04T08:31:49.000Z,1000.45
2017-04-04T08:32:49.024Z,1000.43
2017-04-04T08:33:49.053Z,1000.44
2017-04-04T08:34:49.081Z,1000.44
2017-04-04T08:35:49.106Z,1000.47
2017-04-04T08:36:49.135Z,1000.42
2017-04-04T08:37:49.415Z,1000.43
2017-04-04T08:38:49.193Z,1000.46
2017-04-04T08:39:49.218Z,1000.45
2017-04-04T08:40:49.247Z,1000.42
2017-04-04T08:41:49.276Z,1000.47
2017-04-04T08:42:49.552Z,1000.46
2017-04-04T08:43:49.329Z,1000.45
2017-04-04T08:44:49.358Z,1000.44
2017-04-04T08:45:49.382Z,1000.43
2017-04-04T08:46:49.409Z,1000.44
2017-04-04T08:47:49.691Z,1000.44
2017-04-04T08:48:49.463Z,1000.44
2017-04-04T08:49:49.494Z,1000.44
2017-04-04T08:50:49.522Z,1000.48
2017-04-04T08:51:49.548Z,1000.47
2017-04-04T08:52:49.826Z,1000.43
2017-04-04T08:53:49.605Z,1000.46
2017-04-04T08:54:49.629Z,1000.45
2017-04-04T08:55:49.657Z,1000.48
2017-04-04T08:56:49.686Z,1000.52
2017-04-04T08:57:49.961Z,1000.51
2017-04-04T08:58:49.740Z,1000.54
2017-04-04T08:59:49.769Z,1000.52
2017-04-04T09:00:49.797Z,1000.55
2017-04-04T09:01:49.822Z,1000.52
2017-04-04T09:02:50.103Z,1000.54
2017-04-04T09:03:49.880Z,1000.53
2017-04-04T09:04:49.904Z,1000.58
2017-04-04T09:05:49.933Z,1000.57
2017-04-04T09:06:49.961Z,1000.54
2017-04-04T09:07:49.986Z,1000.53
2017-04-04T09:08:50.015Z,1000.55
2017-04-04T09:09:50.043Z,1000.52
2017-04-04T09:10:50.069Z,1000.52
2017-04-04T09:11:50.097Z,1000.51
2017-04-04T09:12:50.124Z,1000.52
2017-04-04T09:13:50.152Z,1000.5
2017-04-04T09:14:50.183Z,1000.49
2017-04-04T09:15:50.209Z,1000.54
2017-04-04T09:16:50.233Z,1000.51
2017-04-04T09:17:50.261Z,1000.49
2017-04-04T09:18:50.290Z,1000.45
2017-04-04T09:19:50.320Z,1000.47
2017-04-04T09:20:50.348Z,1000.47
2017-04-04T09:21:50.372Z,1000.5
2017-04-04T09:22:50.401Z,1000.51
2017-04-04T09:23:50.429Z,1000.45
2017-04-04T09:24:50.459Z,1000.48
2017-04-04T09:25:50.487Z,1000.49
2017-04-04T09:26:50.513Z,1000.45
2017-04-04T09:27:50.541Z,1000.48
2017-04-04T09:28:50.570Z,1000.45
2017-04-04T09:29:50.595Z,1000.42
2017-04-04T09:30:50.625Z,1000.41
2017-04-04T09:31:50.653Z,1000.43
2017-04-04T09:32:50.679Z,1000.43
2017-04-04T09:33:50.708Z,1000.42
2017-04-04T09:34:50.734Z,1000.41
2017-04-04T09:35:50.766Z,1000.42
2017-04-04T09:36:50.795Z,1000.35
2017-04-04T09:37:50.824Z,1000.39
2017-04-04T09:38:50.850Z,1000.35
2017-04-04T09:39:50.874Z,1000.32
2017-04-04T09:40:50.904Z,1000.34
2017-04-04T09:41:50.933Z,1000.35
2017-04-04T09:42:50.962Z,1000.39
2017-04-04T09:43:50.990Z,1000.31
2017-04-04T09:44:51.023Z,1000.33
2017-04-04T09:45:51.043Z,1000.32
2017-04-04T09:46:51.071Z,1000.34
2017-04-04T09:47:51.097Z,1000.31
2017-04-04T09:48:51.129Z,1000.37
2017-04-04T09:49:51.154Z,1000.36
2017-04-04T09:50:51.182Z,1000.35
2017-04-04T09:51:51.212Z,1000.36
2017-04-04T09:52:51.239Z,1000.37
2017-04-04T09:53:51.269Z,1000.35
2017-04-04T09:54:51.298Z,1000.36
2017-04-04T09:55:51.327Z,1000.38
2017-04-04T09:56:51.350Z,1000.36
2017-04-04T09:57:51.379Z,1000.37
2017-04-04T09:58:51.408Z,1000.36
2017-04-04T09:59:51.437Z,1000.36
2017-04-04T10:00:51.465Z,1000.34
2017-04-04T10:01:51.492Z,1000.33
2017-04-04T10:02:51.520Z,1000.31
2017-04-04T10:03:51.547Z,1000.29
2017-04-04T10:04:51.577Z,1000.3
2017-04-04T10:05:51.605Z,1000.27
2017-04-04T10:06:51.634Z,1000.22
2017-04-04T10:07:51.660Z,1000.27
2017-04-04T10:08:51.683Z,1000.27
2017-04-04T10:09:51.717Z,1000.25
2017-04-04T10:10:51.745Z,1000.25
2017-04-04T10:11:51.774Z,1000.25
2017-04-04T10:12:51.799Z,1000.22
2017-04-04T10:13:51.827Z,1000.25
2017-04-04T10:14:51.856Z,1000.25
2017-04-04T10:15:51.885Z,1000.22
2017-04-04T10:16:51.908Z,1000.23
2017-04-04T10:17:51.941Z,1000.26
2017-04-04T10:18:51.967Z,1000.25
2017-04-04T10:19:51.998Z,1000.27
2017-04-04T10:20:52.025Z,1000.23
2017-04-04T10:21:52.054Z,1000.22
2017-04-04T10:22:52.082Z,1000.24
2017-04-04T10:23:52.111Z,1000.16
2017-04-04T10:24:52.144Z,1000.15
2017-04-04T10:25:52.164Z,1000.12
2017-04-04T10:26:52.194Z,1000.1
2017-04-04T10:27:52.222Z,1000.1
2017-04-04T10:28:52.250Z,1000.08
2017-04-04T10:29:52.279Z,1000.05
2017-04-04T10:30:52.306Z,1000.08
2017-04-04T10:31:52.334Z,1000.13
2017-04-04T10:32:52.361Z,1000.11
2017-04-04T10:33:52.389Z,1000.08
2017-04-04T10:34:52.417Z,1000.12
2017-04-04T10:35:52.447Z,1000.05
2017-04-04T10:36:52.475Z,1000.06
2017-04-04T10:37:52.505Z,1000.04
2017-04-04T10:38:52.533Z,1000.04
2017-04-04T10:39:52.566Z,1000.06
2017-04-04T10:40:52.587Z,1000.1
2017-04-04T10:41:52.615Z,1000.09
2017-04-04T10:42:52.640Z,1000.06
2017-04-04T10:43:52.674Z,1000.05
2017-04-04T10:44:52.703Z,1000.02
2017-04-04T10:45:52.727Z,1000.11
2017-04-04T10:46:52.760Z,1000.13
2017-04-04T10:47:52.779Z,1000.11
2017-04-04T10:48:52.813Z,1000.06
2017-04-04T10:49:52.841Z,1000
2017-04-04T10:50:52.866Z,999.95
2017-04-04T10:51:52.900Z,999.95
2017-04-04T10:52:52.927Z,999.98
2017-04-04T10:53:52.957Z,999.91
2017-04-04T10:54:52.989Z,999.91
2017-04-04T10:55:53.015Z,999.93
2017-04-04T10:56:53.042Z,999.91
2017-04-04T10:57:53.072Z,999.91
2017-04-04T10:58:53.100Z,999.87
2017-04-04T10:59:53.130Z,999.84
2017-04-04T11:00:53.155Z,999.83
2017-04-04T11:01:53.183Z,999.84
2017-04-04T11:02:53.213Z,999.78
2017-04-04T11:03:53.241Z,999.81
2017-04-04T11:04:53.270Z,999.74
2017-04-04T11:05:53.298Z,999.79
2017-04-04T11:06:53.327Z,999.77
2017-04-04T11:07:53.357Z,999.76
2017-04-04T11:08:53.384Z,999.74
2017-04-04T11:09:53.411Z,999.78
2017-04-04T11:10:53.442Z,999.78
2017-04-04T11:11:53.470Z,999.77
2017-04-04T11:12:53.499Z,999.76
2017-04-04T11:13:53.775Z,999.73
2017-04-04T11:14:53.556Z,999.78
2017-04-04T11:15:53.585Z,999.79
2017-04-04T11:16:53.611Z,999.8
2017-04-04T11:17:53.639Z,999.77
2017-04-04T11:18:53.914Z,999.79
2017-04-04T11:19:53.696Z,999.81
2017-04-04T11:20:53.724Z,999.82
2017-04-04T11:21:53.754Z,999.84
2017-04-04T11:22:53.783Z,999.75
2017-04-04T11:23:54.063Z,999.72
2017-04-04T11:24:53.841Z,999.64
2017-04-04T11:25:53.864Z,999.67
2017-04-04T11:26:53.895Z,999.65
2017-04-04T11:27:53.926Z,999.67
2017-04-04T11:28:53.953Z,999.68
2017-04-04T11:29:53.981Z,999.66
2017-04-04T11:30:54.010Z,999.87
2017-04-04T11:31:54.041Z,999.91
2017-04-04T11:32:54.071Z,999.89
2017-04-04T11:33:54.095Z,999.95
2017-04-04T11:34:54.123Z,999.98
2017-04-04T11:35:54.148Z,1000.05
2017-04-04T11:36:54.181Z,999.99
2017-04-04T11:37:54.209Z,999.97
2017-04-04T11:38:54.238Z,1000.02
2017-04-04T11:39:54.267Z,1000.06
2017-04-04T11:40:54.296Z,999.99
2017-04-04T11:41:54.324Z,1000.04
2017-04-04T11:42:54.353Z,1000.02
2017-04-04T11:43:54.380Z,1000.03
2017-04-04T11:44:54.411Z,1000.09
2017-04-04T11:45:54.438Z,1000.14
2017-04-04T11:46:54.467Z,999.79
2017-04-04T11:47:54.494Z,999.67
2017-04-04T11:48:54.524Z,999.63
2017-04-04T11:49:54.550Z,999.64
2017-04-04T11:50:54.583Z,999.65
2017-04-04T11:51:54.611Z,999.57
2017-04-04T11:52:54.639Z,999.62
2017-04-04T11:53:54.663Z,999.64
2017-04-04T11:54:54.697Z,999.74
2017-04-04T11:55:54.726Z,999.74
2017-04-04T11:56:54.755Z,999.72
2017-04-04T11:57:54.784Z,999.66
2017-04-04T11:58:54.813Z,999.59
2017-04-04T11:59:54.841Z,999.61
2017-04-04T12:00:54.874Z,999.63
2017-04-04T12:01:54.897Z,999.58
2017-04-04T12:02:54.927Z,999.67
2017-04-04T12:03:54.953Z,999.75
2017-04-04T12:04:54.984Z,999.71
2017-04-04T12:05:55.012Z,1000.3
2017-04-04T12:06:55.046Z,1000.6
2017-04-04T12:07:55.071Z,1000.78
2017-04-04T12:08:55.100Z,1000.8
2017-04-04T12:09:55.132Z,999.63
2017-04-04T12:10:55.160Z,999.67
2017-04-04T12:11:55.227Z,999.64
2017-04-04T12:12:55.218Z,999.57
2017-04-04T12:13:55.246Z,999.54
2017-04-04T12:14:55.280Z,999.55
2017-04-04T12:15:55.306Z,999.51
2017-04-04T12:16:55.336Z,999.57
2017-04-04T12:17:55.363Z,999.64
2017-04-04T12:18:55.394Z,999.64